sensor_id;sensor_type;location;lat;lon;timestamp;P1;durP1;ratioP1;P2;durP2;ratioP2
8060;SDS011;4073;42.626;25.386;2024-03-08T00:00:13;18.90;;;15.10;;
8060;SDS011;4073;42.626;25.386;2024-03-08T00:02:40;18.33;;;13.33;;
8060;SDS011;4073;42.626;25.386;2024-03-08T00:05:07;18.47;;;14.37;;
8060;SDS011;4073;42.626;25.386;2024-03-08T00:07:37;19.13;;;14.70;;
8060;SDS011;4073;42.626;25.386;2024-03-08T00:10:03;18.60;;;13.43;;
8060;SDS011;4073;42.626;25.386;2024-03-08T00:12:30;18.33;;;14.23;;
8060;SDS011;4073;42.626;25.386;2024-03-08T00:14:56;16.20;;;13.67;;
8060;SDS011;4073;42.626;25.386;2024-03-08T00:17:21;17.47;;;12.37;;
8060;SDS011;4073;42.626;25.386;2024-03-08T00:19:50;16.90;;;12.93;;
8060;SDS011;4073;42.626;25.386;2024-03-08T00:22:16;18.30;;;14.47;;
8060;SDS011;4073;42.626;25.386;2024-03-08T00:24:42;15.63;;;11.90;;
8060;SDS011;4073;42.626;25.386;2024-03-08T00:27:08;14.97;;;11.80;;
8060;SDS011;4073;42.626;25.386;2024-03-08T00:29:34;14.70;;;11.93;;
8060;SDS011;4073;42.626;25.386;2024-03-08T00:32:00;14.87;;;12.23;;
8060;SDS011;4073;42.626;25.386;2024-03-08T00:34:26;15.20;;;11.73;;
8060;SDS011;4073;42.626;25.386;2024-03-08T00:36:52;15.33;;;12.27;;
8060;SDS011;4073;42.626;25.386;2024-03-08T00:39:17;15.07;;;11.03;;
8060;SDS011;4073;42.626;25.386;2024-03-08T00:41:46;15.97;;;12.47;;
8060;SDS011;4073;42.626;25.386;2024-03-08T00:44:11;19.87;;;15.80;;
8060;SDS011;4073;42.626;25.386;2024-03-08T00:46:37;19.17;;;15.10;;
8060;SDS011;4073;42.626;25.386;2024-03-08T00:49:03;24.07;;;17.67;;
8060;SDS011;4073;42.626;25.386;2024-03-08T00:51:28;20.03;;;17.03;;
8060;SDS011;4073;42.626;25.386;2024-03-08T00:53:54;26.43;;;20.33;;
8060;SDS011;4073;42.626;25.386;2024-03-08T00:56:20;28.93;;;17.57;;
8060;SDS011;4073;42.626;25.386;2024-03-08T00:58:45;25.13;;;17.03;;
8060;SDS011;4073;42.626;25.386;2024-03-08T01:01:12;25.87;;;18.53;;
8060;SDS011;4073;42.626;25.386;2024-03-08T01:03:42;21.83;;;16.33;;
8060;SDS011;4073;42.626;25.386;2024-03-08T01:06:08;26.30;;;18.27;;
8060;SDS011;4073;42.626;25.386;2024-03-08T01:08:34;21.90;;;18.10;;
8060;SDS011;4073;42.626;25.386;2024-03-08T01:10:59;23.47;;;18.17;;
8060;SDS011;4073;42.626;25.386;2024-03-08T01:13:25;23.23;;;18.07;;
8060;SDS011;4073;42.626;25.386;2024-03-08T01:15:51;18.50;;;13.50;;
8060;SDS011;4073;42.626;25.386;2024-03-08T01:18:16;14.87;;;11.97;;
8060;SDS011;4073;42.626;25.386;2024-03-08T01:20:42;15.93;;;11.83;;
8060;SDS011;4073;42.626;25.386;2024-03-08T01:23:07;15.00;;;11.93;;
8060;SDS011;4073;42.626;25.386;2024-03-08T01:25:33;14.50;;;11.10;;
8060;SDS011;4073;42.626;25.386;2024-03-08T01:27:59;13.00;;;11.20;;
8060;SDS011;4073;42.626;25.386;2024-03-08T01:30:24;17.10;;;12.53;;
8060;SDS011;4073;42.626;25.386;2024-03-08T01:32:50;17.47;;;11.93;;
8060;SDS011;4073;42.626;25.386;2024-03-08T01:35:15;15.00;;;12.70;;
8060;SDS011;4073;42.626;25.386;2024-03-08T01:37:41;14.00;;;11.70;;
8060;SDS011;4073;42.626;25.386;2024-03-08T01:40:07;15.93;;;12.30;;
8060;SDS011;4073;42.626;25.386;2024-03-08T01:42:34;17.47;;;13.03;;
8060;SDS011;4073;42.626;25.386;2024-03-08T01:45:04;18.97;;;13.90;;
8060;SDS011;4073;42.626;25.386;2024-03-08T01:47:31;17.73;;;13.47;;
8060;SDS011;4073;42.626;25.386;2024-03-08T01:49:58;16.27;;;13.03;;
8060;SDS011;4073;42.626;25.386;2024-03-08T01:52:26;20.57;;;14.20;;
8060;SDS011;4073;42.626;25.386;2024-03-08T01:54:54;19.80;;;14.77;;
8060;SDS011;4073;42.626;25.386;2024-03-08T01:57:20;18.77;;;13.90;;
8060;SDS011;4073;42.626;25.386;2024-03-08T01:59:46;20.23;;;15.83;;
8060;SDS011;4073;42.626;25.386;2024-03-08T02:02:12;20.27;;;13.73;;
8060;SDS011;4073;42.626;25.386;2024-03-08T02:04:43;20.33;;;13.90;;
8060;SDS011;4073;42.626;25.386;2024-03-08T02:07:09;20.23;;;15.40;;
8060;SDS011;4073;42.626;25.386;2024-03-08T02:09:35;24.70;;;15.63;;
8060;SDS011;4073;42.626;25.386;2024-03-08T02:12:02;23.60;;;16.80;;
8060;SDS011;4073;42.626;25.386;2024-03-08T02:14:28;22.47;;;17.43;;
8060;SDS011;4073;42.626;25.386;2024-03-08T02:16:53;23.17;;;16.20;;
8060;SDS011;4073;42.626;25.386;2024-03-08T02:19:19;21.10;;;16.23;;
8060;SDS011;4073;42.626;25.386;2024-03-08T02:21:45;25.93;;;17.43;;
8060;SDS011;4073;42.626;25.386;2024-03-08T02:24:12;25.87;;;19.37;;
8060;SDS011;4073;42.626;25.386;2024-03-08T02:26:38;24.83;;;18.67;;
8060;SDS011;4073;42.626;25.386;2024-03-08T02:29:03;29.07;;;19.47;;
8060;SDS011;4073;42.626;25.386;2024-03-08T02:31:30;30.47;;;21.97;;
8060;SDS011;4073;42.626;25.386;2024-03-08T02:33:55;31.47;;;23.67;;
8060;SDS011;4073;42.626;25.386;2024-03-08T02:36:21;29.37;;;20.53;;
8060;SDS011;4073;42.626;25.386;2024-03-08T02:38:46;31.73;;;21.10;;
8060;SDS011;4073;42.626;25.386;2024-03-08T02:41:12;30.47;;;22.57;;
8060;SDS011;4073;42.626;25.386;2024-03-08T02:43:38;32.83;;;23.23;;
8060;SDS011;4073;42.626;25.386;2024-03-08T02:46:03;38.87;;;26.87;;
8060;SDS011;4073;42.626;25.386;2024-03-08T02:48:30;31.33;;;22.20;;
8060;SDS011;4073;42.626;25.386;2024-03-08T02:50:55;34.93;;;25.13;;
8060;SDS011;4073;42.626;25.386;2024-03-08T02:53:21;35.30;;;24.03;;
8060;SDS011;4073;42.626;25.386;2024-03-08T02:55:47;36.97;;;25.47;;
8060;SDS011;4073;42.626;25.386;2024-03-08T02:58:12;39.93;;;26.47;;
8060;SDS011;4073;42.626;25.386;2024-03-08T03:00:39;38.87;;;25.93;;
8060;SDS011;4073;42.626;25.386;2024-03-08T03:03:06;36.33;;;24.03;;
8060;SDS011;4073;42.626;25.386;2024-03-08T03:05:32;32.73;;;22.40;;
8060;SDS011;4073;42.626;25.386;2024-03-08T03:07:58;34.70;;;21.43;;
8060;SDS011;4073;42.626;25.386;2024-03-08T03:10:24;33.37;;;23.20;;
8060;SDS011;4073;42.626;25.386;2024-03-08T03:12:50;28.47;;;19.90;;
8060;SDS011;4073;42.626;25.386;2024-03-08T03:15:16;31.30;;;22.07;;
8060;SDS011;4073;42.626;25.386;2024-03-08T03:17:49;29.47;;;20.77;;
8060;SDS011;4073;42.626;25.386;2024-03-08T03:20:18;30.77;;;20.80;;
8060;SDS011;4073;42.626;25.386;2024-03-08T03:23:13;28.80;;;19.93;;
8060;SDS011;4073;42.626;25.386;2024-03-08T03:25:39;30.10;;;20.10;;
8060;SDS011;4073;42.626;25.386;2024-03-08T03:28:06;29.33;;;21.40;;
8060;SDS011;4073;42.626;25.386;2024-03-08T03:30:32;32.07;;;20.70;;
8060;SDS011;4073;42.626;25.386;2024-03-08T03:33:01;28.80;;;20.90;;
8060;SDS011;4073;42.626;25.386;2024-03-08T03:35:31;29.53;;;21.00;;
8060;SDS011;4073;42.626;25.386;2024-03-08T03:37:58;30.13;;;20.70;;
8060;SDS011;4073;42.626;25.386;2024-03-08T03:40:38;28.70;;;20.27;;
8060;SDS011;4073;42.626;25.386;2024-03-08T03:43:05;30.20;;;19.70;;
8060;SDS011;4073;42.626;25.386;2024-03-08T03:45:31;27.00;;;19.27;;
8060;SDS011;4073;42.626;25.386;2024-03-08T03:48:01;28.40;;;19.27;;
8060;SDS011;4073;42.626;25.386;2024-03-08T03:50:31;27.77;;;18.37;;
8060;SDS011;4073;42.626;25.386;2024-03-08T03:52:59;22.07;;;16.83;;
8060;SDS011;4073;42.626;25.386;2024-03-08T03:55:25;27.33;;;19.37;;
8060;SDS011;4073;42.626;25.386;2024-03-08T03:57:50;26.50;;;18.73;;
8060;SDS011;4073;42.626;25.386;2024-03-08T04:00:16;30.80;;;18.97;;
8060;SDS011;4073;42.626;25.386;2024-03-08T04:02:41;25.33;;;18.07;;
8060;SDS011;4073;42.626;25.386;2024-03-08T04:05:07;29.67;;;19.07;;
8060;SDS011;4073;42.626;25.386;2024-03-08T04:07:34;27.73;;;18.93;;
8060;SDS011;4073;42.626;25.386;2024-03-08T04:10:04;24.03;;;17.33;;
8060;SDS011;4073;42.626;25.386;2024-03-08T04:12:31;26.63;;;17.30;;
8060;SDS011;4073;42.626;25.386;2024-03-08T04:14:57;40.47;;;24.67;;
8060;SDS011;4073;42.626;25.386;2024-03-08T04:17:23;32.93;;;19.40;;
8060;SDS011;4073;42.626;25.386;2024-03-08T04:19:51;48.17;;;30.40;;
8060;SDS011;4073;42.626;25.386;2024-03-08T04:22:17;29.47;;;21.50;;
8060;SDS011;4073;42.626;25.386;2024-03-08T04:24:43;45.77;;;25.77;;
8060;SDS011;4073;42.626;25.386;2024-03-08T04:27:09;32.60;;;19.47;;
8060;SDS011;4073;42.626;25.386;2024-03-08T04:29:35;35.13;;;21.93;;
8060;SDS011;4073;42.626;25.386;2024-03-08T04:32:04;37.43;;;22.30;;
8060;SDS011;4073;42.626;25.386;2024-03-08T04:34:31;39.03;;;22.60;;
8060;SDS011;4073;42.626;25.386;2024-03-08T04:36:57;30.97;;;21.40;;
8060;SDS011;4073;42.626;25.386;2024-03-08T04:39:23;28.80;;;18.83;;
8060;SDS011;4073;42.626;25.386;2024-03-08T04:41:49;27.60;;;19.50;;
8060;SDS011;4073;42.626;25.386;2024-03-08T04:44:15;30.73;;;20.60;;
8060;SDS011;4073;42.626;25.386;2024-03-08T04:46:42;31.60;;;19.57;;
8060;SDS011;4073;42.626;25.386;2024-03-08T04:49:09;29.47;;;19.40;;
8060;SDS011;4073;42.626;25.386;2024-03-08T04:51:36;30.53;;;20.67;;
8060;SDS011;4073;42.626;25.386;2024-03-08T04:54:02;26.70;;;19.20;;
8060;SDS011;4073;42.626;25.386;2024-03-08T04:56:29;29.23;;;18.73;;
8060;SDS011;4073;42.626;25.386;2024-03-08T04:58:55;30.23;;;18.67;;
8060;SDS011;4073;42.626;25.386;2024-03-08T05:01:21;26.47;;;16.70;;
8060;SDS011;4073;42.626;25.386;2024-03-08T05:03:46;32.60;;;20.47;;
8060;SDS011;4073;42.626;25.386;2024-03-08T05:06:15;31.47;;;20.13;;
8060;SDS011;4073;42.626;25.386;2024-03-08T05:08:43;24.20;;;18.47;;
8060;SDS011;4073;42.626;25.386;2024-03-08T05:11:08;32.73;;;23.00;;
8060;SDS011;4073;42.626;25.386;2024-03-08T05:13:34;34.63;;;22.77;;
8060;SDS011;4073;42.626;25.386;2024-03-08T05:16:00;31.73;;;20.17;;
8060;SDS011;4073;42.626;25.386;2024-03-08T05:18:26;28.20;;;20.10;;
8060;SDS011;4073;42.626;25.386;2024-03-08T05:20:53;26.63;;;20.33;;
8060;SDS011;4073;42.626;25.386;2024-03-08T05:23:19;25.43;;;19.73;;
8060;SDS011;4073;42.626;25.386;2024-03-08T05:25:45;31.87;;;20.80;;
8060;SDS011;4073;42.626;25.386;2024-03-08T05:28:13;23.63;;;18.37;;
8060;SDS011;4073;42.626;25.386;2024-03-08T05:30:39;29.33;;;21.60;;
8060;SDS011;4073;42.626;25.386;2024-03-08T05:33:05;26.63;;;18.67;;
8060;SDS011;4073;42.626;25.386;2024-03-08T05:35:30;25.63;;;18.77;;
8060;SDS011;4073;42.626;25.386;2024-03-08T05:37:57;31.07;;;20.40;;
8060;SDS011;4073;42.626;25.386;2024-03-08T05:40:23;23.23;;;17.33;;
8060;SDS011;4073;42.626;25.386;2024-03-08T05:42:49;26.07;;;18.10;;
8060;SDS011;4073;42.626;25.386;2024-03-08T05:45:14;25.20;;;18.43;;
8060;SDS011;4073;42.626;25.386;2024-03-08T05:47:40;24.20;;;16.73;;
8060;SDS011;4073;42.626;25.386;2024-03-08T05:50:06;26.13;;;17.97;;
8060;SDS011;4073;42.626;25.386;2024-03-08T05:52:36;26.03;;;17.13;;
8060;SDS011;4073;42.626;25.386;2024-03-08T05:55:03;23.03;;;16.33;;
8060;SDS011;4073;42.626;25.386;2024-03-08T05:57:32;26.90;;;18.63;;
8060;SDS011;4073;42.626;25.386;2024-03-08T05:59:58;23.63;;;17.63;;
8060;SDS011;4073;42.626;25.386;2024-03-08T06:02:23;25.17;;;18.90;;
8060;SDS011;4073;42.626;25.386;2024-03-08T06:04:49;26.33;;;19.87;;
8060;SDS011;4073;42.626;25.386;2024-03-08T06:07:14;27.63;;;19.17;;
8060;SDS011;4073;42.626;25.386;2024-03-08T06:09:41;30.00;;;19.60;;
8060;SDS011;4073;42.626;25.386;2024-03-08T06:12:10;27.43;;;19.63;;
8060;SDS011;4073;42.626;25.386;2024-03-08T06:14:36;30.93;;;22.73;;
8060;SDS011;4073;42.626;25.386;2024-03-08T06:17:02;27.87;;;19.27;;
8060;SDS011;4073;42.626;25.386;2024-03-08T06:19:31;27.50;;;20.10;;
8060;SDS011;4073;42.626;25.386;2024-03-08T06:21:56;29.03;;;21.17;;
8060;SDS011;4073;42.626;25.386;2024-03-08T06:24:22;29.20;;;21.40;;
8060;SDS011;4073;42.626;25.386;2024-03-08T06:26:47;30.57;;;20.63;;
8060;SDS011;4073;42.626;25.386;2024-03-08T06:29:13;28.27;;;20.07;;
8060;SDS011;4073;42.626;25.386;2024-03-08T06:31:40;25.13;;;19.00;;
8060;SDS011;4073;42.626;25.386;2024-03-08T06:34:06;26.87;;;20.03;;
8060;SDS011;4073;42.626;25.386;2024-03-08T06:36:33;30.53;;;21.30;;
8060;SDS011;4073;42.626;25.386;2024-03-08T06:38:58;29.07;;;19.73;;
8060;SDS011;4073;42.626;25.386;2024-03-08T06:41:24;27.33;;;21.43;;
8060;SDS011;4073;42.626;25.386;2024-03-08T06:43:49;26.60;;;20.53;;
8060;SDS011;4073;42.626;25.386;2024-03-08T06:46:17;29.73;;;20.10;;
8060;SDS011;4073;42.626;25.386;2024-03-08T06:48:43;28.43;;;21.40;;
8060;SDS011;4073;42.626;25.386;2024-03-08T06:51:10;29.07;;;21.67;;
8060;SDS011;4073;42.626;25.386;2024-03-08T06:53:36;30.33;;;22.50;;
8060;SDS011;4073;42.626;25.386;2024-03-08T06:56:02;29.17;;;21.20;;
8060;SDS011;4073;42.626;25.386;2024-03-08T06:58:28;32.37;;;25.00;;
8060;SDS011;4073;42.626;25.386;2024-03-08T07:00:53;31.10;;;22.50;;
8060;SDS011;4073;42.626;25.386;2024-03-08T07:03:23;32.33;;;22.97;;
8060;SDS011;4073;42.626;25.386;2024-03-08T07:05:49;32.87;;;22.33;;
8060;SDS011;4073;42.626;25.386;2024-03-08T07:08:15;29.63;;;21.80;;
8060;SDS011;4073;42.626;25.386;2024-03-08T07:10:41;33.20;;;23.53;;
8060;SDS011;4073;42.626;25.386;2024-03-08T07:13:07;34.20;;;21.97;;
8060;SDS011;4073;42.626;25.386;2024-03-08T07:15:33;35.20;;;25.70;;
8060;SDS011;4073;42.626;25.386;2024-03-08T07:18:00;36.10;;;24.60;;
8060;SDS011;4073;42.626;25.386;2024-03-08T07:20:26;31.67;;;23.67;;
8060;SDS011;4073;42.626;25.386;2024-03-08T07:22:51;30.93;;;22.50;;
8060;SDS011;4073;42.626;25.386;2024-03-08T07:25:17;29.03;;;21.20;;
8060;SDS011;4073;42.626;25.386;2024-03-08T07:27:46;30.77;;;22.07;;
8060;SDS011;4073;42.626;25.386;2024-03-08T07:30:12;28.90;;;20.57;;
8060;SDS011;4073;42.626;25.386;2024-03-08T07:32:58;29.27;;;19.97;;
8060;SDS011;4073;42.626;25.386;2024-03-08T07:35:23;31.43;;;20.13;;
8060;SDS011;4073;42.626;25.386;2024-03-08T07:37:51;41.07;;;23.73;;
8060;SDS011;4073;42.626;25.386;2024-03-08T07:40:20;36.73;;;21.80;;
8060;SDS011;4073;42.626;25.386;2024-03-08T07:42:46;40.50;;;24.57;;
8060;SDS011;4073;42.626;25.386;2024-03-08T07:45:11;37.30;;;21.53;;
8060;SDS011;4073;42.626;25.386;2024-03-08T07:47:38;40.33;;;23.80;;
8060;SDS011;4073;42.626;25.386;2024-03-08T07:50:03;47.47;;;28.27;;
8060;SDS011;4073;42.626;25.386;2024-03-08T07:52:29;39.63;;;26.80;;
8060;SDS011;4073;42.626;25.386;2024-03-08T07:54:55;33.67;;;23.20;;
8060;SDS011;4073;42.626;25.386;2024-03-08T07:57:20;38.07;;;24.60;;
8060;SDS011;4073;42.626;25.386;2024-03-08T07:59:46;30.43;;;20.00;;
8060;SDS011;4073;42.626;25.386;2024-03-08T08:02:11;28.93;;;20.83;;
8060;SDS011;4073;42.626;25.386;2024-03-08T08:04:37;26.50;;;19.40;;
8060;SDS011;4073;42.626;25.386;2024-03-08T08:07:03;22.10;;;17.90;;
8060;SDS011;4073;42.626;25.386;2024-03-08T08:09:29;23.13;;;17.63;;
8060;SDS011;4073;42.626;25.386;2024-03-08T08:11:59;23.10;;;14.60;;
8060;SDS011;4073;42.626;25.386;2024-03-08T08:14:27;19.40;;;15.53;;
8060;SDS011;4073;42.626;25.386;2024-03-08T08:16:54;22.47;;;16.27;;
8060;SDS011;4073;42.626;25.386;2024-03-08T08:19:20;19.37;;;16.00;;
8060;SDS011;4073;42.626;25.386;2024-03-08T08:21:46;17.97;;;15.30;;
8060;SDS011;4073;42.626;25.386;2024-03-08T08:24:12;20.23;;;15.80;;
8060;SDS011;4073;42.626;25.386;2024-03-08T08:26:37;22.30;;;17.90;;
8060;SDS011;4073;42.626;25.386;2024-03-08T08:29:03;21.87;;;16.63;;
8060;SDS011;4073;42.626;25.386;2024-03-08T08:31:29;22.80;;;15.10;;
8060;SDS011;4073;42.626;25.386;2024-03-08T08:33:56;14.67;;;11.60;;
8060;SDS011;4073;42.626;25.386;2024-03-08T08:36:25;23.07;;;16.77;;
8060;SDS011;4073;42.626;25.386;2024-03-08T08:38:51;19.43;;;12.33;;
8060;SDS011;4073;42.626;25.386;2024-03-08T08:41:19;12.87;;;8.53;;
8060;SDS011;4073;42.626;25.386;2024-03-08T08:43:46;10.93;;;8.63;;
8060;SDS011;4073;42.626;25.386;2024-03-08T08:46:12;6.40;;;4.33;;
8060;SDS011;4073;42.626;25.386;2024-03-08T08:48:40;5.07;;;4.13;;
8060;SDS011;4073;42.626;25.386;2024-03-08T08:51:10;7.70;;;4.83;;
8060;SDS011;4073;42.626;25.386;2024-03-08T08:53:40;7.17;;;5.70;;
8060;SDS011;4073;42.626;25.386;2024-03-08T08:56:12;3.80;;;3.40;;
8060;SDS011;4073;42.626;25.386;2024-03-08T08:58:41;3.33;;;2.77;;
8060;SDS011;4073;42.626;25.386;2024-03-08T09:01:10;5.47;;;3.80;;
8060;SDS011;4073;42.626;25.386;2024-03-08T09:03:36;4.20;;;3.80;;
8060;SDS011;4073;42.626;25.386;2024-03-08T09:06:05;4.10;;;3.57;;
8060;SDS011;4073;42.626;25.386;2024-03-08T09:08:30;3.37;;;3.07;;
8060;SDS011;4073;42.626;25.386;2024-03-08T09:10:56;4.47;;;3.10;;
8060;SDS011;4073;42.626;25.386;2024-03-08T09:13:21;3.10;;;2.80;;
8060;SDS011;4073;42.626;25.386;2024-03-08T09:15:48;3.23;;;3.03;;
8060;SDS011;4073;42.626;25.386;2024-03-08T09:18:13;2.73;;;2.50;;
8060;SDS011;4073;42.626;25.386;2024-03-08T09:20:39;3.10;;;2.80;;
8060;SDS011;4073;42.626;25.386;2024-03-08T09:23:06;3.43;;;3.13;;
8060;SDS011;4073;42.626;25.386;2024-03-08T09:25:33;3.00;;;2.80;;
8060;SDS011;4073;42.626;25.386;2024-03-08T09:27:59;2.93;;;2.63;;
8060;SDS011;4073;42.626;25.386;2024-03-08T09:30:24;3.07;;;2.77;;
8060;SDS011;4073;42.626;25.386;2024-03-08T09:32:50;3.67;;;3.33;;
8060;SDS011;4073;42.626;25.386;2024-03-08T09:35:16;4.17;;;3.10;;
8060;SDS011;4073;42.626;25.386;2024-03-08T09:37:42;3.43;;;3.13;;
8060;SDS011;4073;42.626;25.386;2024-03-08T09:40:07;3.67;;;3.33;;
8060;SDS011;4073;42.626;25.386;2024-03-08T09:42:40;3.53;;;2.57;;
8060;SDS011;4073;42.626;25.386;2024-03-08T09:45:09;3.33;;;2.80;;
8060;SDS011;4073;42.626;25.386;2024-03-08T09:47:40;3.13;;;2.60;;
8060;SDS011;4073;42.626;25.386;2024-03-08T09:50:08;2.60;;;2.40;;
8060;SDS011;4073;42.626;25.386;2024-03-08T09:52:35;2.97;;;2.43;;
8060;SDS011;4073;42.626;25.386;2024-03-08T09:55:03;3.33;;;2.67;;
8060;SDS011;4073;42.626;25.386;2024-03-08T09:57:31;3.60;;;2.80;;
8060;SDS011;4073;42.626;25.386;2024-03-08T09:59:58;2.53;;;2.33;;
8060;SDS011;4073;42.626;25.386;2024-03-08T10:02:24;2.20;;;2.00;;
8060;SDS011;4073;42.626;25.386;2024-03-08T10:04:50;2.23;;;2.00;;
8060;SDS011;4073;42.626;25.386;2024-03-08T10:07:18;2.40;;;2.20;;
8060;SDS011;4073;42.626;25.386;2024-03-08T10:09:44;5.17;;;2.20;;
8060;SDS011;4073;42.626;25.386;2024-03-08T10:12:15;2.13;;;1.93;;
8060;SDS011;4073;42.626;25.386;2024-03-08T10:14:42;2.43;;;2.17;;
8060;SDS011;4073;42.626;25.386;2024-03-08T10:17:08;2.50;;;2.30;;
8060;SDS011;4073;42.626;25.386;2024-03-08T10:19:34;2.40;;;2.20;;
8060;SDS011;4073;42.626;25.386;2024-03-08T10:22:00;2.60;;;2.40;;
8060;SDS011;4073;42.626;25.386;2024-03-08T10:24:25;3.53;;;2.50;;
8060;SDS011;4073;42.626;25.386;2024-03-08T10:26:52;2.87;;;2.33;;
8060;SDS011;4073;42.626;25.386;2024-03-08T10:29:18;3.90;;;2.93;;
8060;SDS011;4073;42.626;25.386;2024-03-08T10:31:45;3.93;;;3.03;;
8060;SDS011;4073;42.626;25.386;2024-03-08T10:34:10;2.93;;;2.63;;
8060;SDS011;4073;42.626;25.386;2024-03-08T10:36:36;4.27;;;2.90;;
8060;SDS011;4073;42.626;25.386;2024-03-08T10:39:04;3.50;;;2.60;;
8060;SDS011;4073;42.626;25.386;2024-03-08T10:41:46;3.80;;;2.93;;
8060;SDS011;4073;42.626;25.386;2024-03-08T10:47:00;2.93;;;2.67;;
8060;SDS011;4073;42.626;25.386;2024-03-08T10:52:29;2.60;;;2.40;;
8060;SDS011;4073;42.626;25.386;2024-03-08T10:54:54;2.80;;;2.50;;
8060;SDS011;4073;42.626;25.386;2024-03-08T10:57:22;2.63;;;2.10;;
8060;SDS011;4073;42.626;25.386;2024-03-08T10:59:49;3.17;;;2.03;;
8060;SDS011;4073;42.626;25.386;2024-03-08T11:02:16;3.03;;;2.13;;
8060;SDS011;4073;42.626;25.386;2024-03-08T11:04:49;2.53;;;2.33;;
8060;SDS011;4073;42.626;25.386;2024-03-08T11:07:15;2.43;;;2.23;;
8060;SDS011;4073;42.626;25.386;2024-03-08T11:09:45;2.57;;;2.00;;
8060;SDS011;4073;42.626;25.386;2024-03-08T11:14:55;2.40;;;2.20;;
8060;SDS011;4073;42.626;25.386;2024-03-08T11:19:56;3.27;;;2.97;;
8060;SDS011;4073;42.626;25.386;2024-03-08T11:22:27;3.00;;;2.33;;
8060;SDS011;4073;42.626;25.386;2024-03-08T11:24:58;2.73;;;2.53;;
8060;SDS011;4073;42.626;25.386;2024-03-08T11:27:30;2.57;;;2.37;;
8060;SDS011;4073;42.626;25.386;2024-03-08T11:30:03;2.67;;;2.47;;
8060;SDS011;4073;42.626;25.386;2024-03-08T11:32:36;2.23;;;2.03;;
8060;SDS011;4073;42.626;25.386;2024-03-08T11:35:06;2.90;;;2.33;;
8060;SDS011;4073;42.626;25.386;2024-03-08T11:37:34;2.67;;;2.20;;
8060;SDS011;4073;42.626;25.386;2024-03-08T11:40:01;3.63;;;3.00;;
8060;SDS011;4073;42.626;25.386;2024-03-08T11:42:29;2.43;;;2.23;;
8060;SDS011;4073;42.626;25.386;2024-03-08T11:44:55;4.50;;;2.47;;
8060;SDS011;4073;42.626;25.386;2024-03-08T11:47:21;1.90;;;1.80;;
8060;SDS011;4073;42.626;25.386;2024-03-08T11:49:47;2.47;;;2.27;;
8060;SDS011;4073;42.626;25.386;2024-03-08T11:52:16;2.33;;;1.80;;
8060;SDS011;4073;42.626;25.386;2024-03-08T11:54:48;1.67;;;1.57;;
8060;SDS011;4073;42.626;25.386;2024-03-08T11:57:19;2.10;;;1.90;;
8060;SDS011;4073;42.626;25.386;2024-03-08T11:59:51;2.47;;;2.27;;
8060;SDS011;4073;42.626;25.386;2024-03-08T12:02:23;7.63;;;2.70;;
8060;SDS011;4073;42.626;25.386;2024-03-08T12:04:56;3.27;;;2.40;;
8060;SDS011;4073;42.626;25.386;2024-03-08T12:07:24;4.30;;;2.57;;
8060;SDS011;4073;42.626;25.386;2024-03-08T12:12:47;4.20;;;2.80;;
8060;SDS011;4073;42.626;25.386;2024-03-08T12:15:15;3.70;;;3.13;;
8060;SDS011;4073;42.626;25.386;2024-03-08T12:17:43;4.43;;;3.50;;
8060;SDS011;4073;42.626;25.386;2024-03-08T12:20:13;4.30;;;2.80;;
8060;SDS011;4073;42.626;25.386;2024-03-08T12:22:49;2.97;;;2.70;;
8060;SDS011;4073;42.626;25.386;2024-03-08T12:25:17;4.67;;;3.37;;
8060;SDS011;4073;42.626;25.386;2024-03-08T12:27:43;3.97;;;3.00;;
8060;SDS011;4073;42.626;25.386;2024-03-08T12:30:43;3.03;;;2.60;;
8060;SDS011;4073;42.626;25.386;2024-03-08T12:33:00;3.00;;;2.60;;
8060;SDS011;4073;42.626;25.386;2024-03-08T12:35:26;2.67;;;2.33;;
8060;SDS011;4073;42.626;25.386;2024-03-08T12:37:54;2.67;;;2.47;;
8060;SDS011;4073;42.626;25.386;2024-03-08T12:40:30;2.80;;;2.50;;
8060;SDS011;4073;42.626;25.386;2024-03-08T12:42:57;3.63;;;2.93;;
8060;SDS011;4073;42.626;25.386;2024-03-08T12:45:26;2.97;;;2.67;;
8060;SDS011;4073;42.626;25.386;2024-03-08T12:47:52;3.47;;;3.00;;
8060;SDS011;4073;42.626;25.386;2024-03-08T12:50:18;3.47;;;3.07;;
8060;SDS011;4073;42.626;25.386;2024-03-08T12:52:45;2.77;;;2.50;;
8060;SDS011;4073;42.626;25.386;2024-03-08T12:55:11;2.93;;;2.50;;
8060;SDS011;4073;42.626;25.386;2024-03-08T12:57:37;4.77;;;2.80;;
8060;SDS011;4073;42.626;25.386;2024-03-08T13:00:03;2.73;;;2.47;;
8060;SDS011;4073;42.626;25.386;2024-03-08T13:02:30;3.17;;;2.87;;
8060;SDS011;4073;42.626;25.386;2024-03-08T13:05:00;3.60;;;2.30;;
8060;SDS011;4073;42.626;25.386;2024-03-08T13:07:26;6.23;;;3.97;;
8060;SDS011;4073;42.626;25.386;2024-03-08T13:09:54;2.50;;;2.30;;
8060;SDS011;4073;42.626;25.386;2024-03-08T13:12:23;2.60;;;2.40;;
8060;SDS011;4073;42.626;25.386;2024-03-08T13:14:49;3.50;;;3.00;;
8060;SDS011;4073;42.626;25.386;2024-03-08T13:17:14;3.37;;;2.80;;
8060;SDS011;4073;42.626;25.386;2024-03-08T13:19:40;4.63;;;3.13;;
8060;SDS011;4073;42.626;25.386;2024-03-08T13:22:07;5.27;;;3.23;;
8060;SDS011;4073;42.626;25.386;2024-03-08T13:24:38;3.97;;;3.30;;
8060;SDS011;4073;42.626;25.386;2024-03-08T13:27:06;2.73;;;2.50;;
8060;SDS011;4073;42.626;25.386;2024-03-08T13:29:50;3.63;;;2.93;;
8060;SDS011;4073;42.626;25.386;2024-03-08T13:32:15;3.83;;;3.13;;
8060;SDS011;4073;42.626;25.386;2024-03-08T13:34:44;3.43;;;3.13;;
8060;SDS011;4073;42.626;25.386;2024-03-08T13:37:10;2.90;;;2.60;;
8060;SDS011;4073;42.626;25.386;2024-03-08T13:39:37;4.47;;;3.33;;
8060;SDS011;4073;42.626;25.386;2024-03-08T13:42:07;11.40;;;6.90;;
8060;SDS011;4073;42.626;25.386;2024-03-08T13:44:38;10.60;;;6.07;;
8060;SDS011;4073;42.626;25.386;2024-03-08T13:47:04;3.90;;;2.77;;
8060;SDS011;4073;42.626;25.386;2024-03-08T13:49:30;3.43;;;3.13;;
8060;SDS011;4073;42.626;25.386;2024-03-08T13:51:56;3.83;;;2.93;;
8060;SDS011;4073;42.626;25.386;2024-03-08T13:54:24;6.90;;;3.73;;
8060;SDS011;4073;42.626;25.386;2024-03-08T13:56:50;5.60;;;4.53;;
8060;SDS011;4073;42.626;25.386;2024-03-08T13:59:19;4.53;;;3.63;;
8060;SDS011;4073;42.626;25.386;2024-03-08T14:01:47;5.03;;;4.27;;
8060;SDS011;4073;42.626;25.386;2024-03-08T14:04:14;3.53;;;3.23;;
8060;SDS011;4073;42.626;25.386;2024-03-08T14:06:40;4.70;;;3.87;;
8060;SDS011;4073;42.626;25.386;2024-03-08T14:09:06;5.57;;;5.00;;
8060;SDS011;4073;42.626;25.386;2024-03-08T14:11:33;7.47;;;5.73;;
8060;SDS011;4073;42.626;25.386;2024-03-08T14:13:58;4.93;;;4.33;;
8060;SDS011;4073;42.626;25.386;2024-03-08T14:16:24;9.33;;;5.30;;
8060;SDS011;4073;42.626;25.386;2024-03-08T14:18:50;8.03;;;5.67;;
8060;SDS011;4073;42.626;25.386;2024-03-08T14:21:15;5.13;;;4.40;;
8060;SDS011;4073;42.626;25.386;2024-03-08T14:23:42;6.13;;;4.43;;
8060;SDS011;4073;42.626;25.386;2024-03-08T14:26:08;6.23;;;4.77;;
8060;SDS011;4073;42.626;25.386;2024-03-08T14:28:34;8.37;;;5.23;;
8060;SDS011;4073;42.626;25.386;2024-03-08T14:31:00;9.73;;;5.90;;
8060;SDS011;4073;42.626;25.386;2024-03-08T14:33:28;12.10;;;7.17;;
8060;SDS011;4073;42.626;25.386;2024-03-08T14:35:53;13.57;;;8.67;;
8060;SDS011;4073;42.626;25.386;2024-03-08T14:38:19;6.97;;;5.30;;
8060;SDS011;4073;42.626;25.386;2024-03-08T14:40:45;7.03;;;4.23;;
8060;SDS011;4073;42.626;25.386;2024-03-08T14:43:12;9.93;;;4.67;;
8060;SDS011;4073;42.626;25.386;2024-03-08T14:45:39;8.53;;;6.00;;
8060;SDS011;4073;42.626;25.386;2024-03-08T14:48:06;7.10;;;5.97;;
8060;SDS011;4073;42.626;25.386;2024-03-08T14:50:32;8.27;;;6.27;;
8060;SDS011;4073;42.626;25.386;2024-03-08T14:52:58;7.87;;;6.00;;
8060;SDS011;4073;42.626;25.386;2024-03-08T14:55:25;7.63;;;5.70;;
8060;SDS011;4073;42.626;25.386;2024-03-08T14:57:51;5.30;;;4.80;;